Latest Weather Observations for Hartz Mountains

IDT60801

Issued at 2:01 pm EDT Saturday 6 February 2016 (issued every 30 minutes, with the page automatically refreshed every 10 minutes)

About weather observations | Map of weather stations | Latest weather observations for TAS | Other Formats
Station Details ID: 094191 Name: HARTZ MOUNTAIN (KEOGHS PIMPLE) Lat: -43.20 Lon: 146.77 Height: 831.0 m
Data from the previous 72 hours. | See also: Recent months at Hartz Mountains
Date/Time
EDT
Temp
°C
App
Temp
°C
Dew
Point
Rel
Hum
%
Delta-T
°C
Wind Press
QNH
hPa
Press
MSL
hPa
Rain
since 9 am
mm
Dir
 
Spd
km/h
Gust
km/h
Spd
kts
Gust
kts
06/02:00pm 17.1 15.6 13.0 77 2.4 E 13 17 7 9 - - 0.0
06/01:30pm 17.6 16.6 14.5 82 1.9 ESE 13 17 7 9 - - 0.0
06/01:00pm 15.2 14.0 12.9 86 1.3 ESE 11 17 6 9 - - 0.0
06/12:30pm 15.7 16.0 12.3 80 1.9 W 2 9 1 5 - - 0.0
06/12:00pm 16.6 17.1 12.8 78 2.2 SW 2 7 1 4 - - 0.0
06/11:30am 16.8 15.7 12.1 74 2.7 WNW 9 13 5 7 - - 0.0
06/11:00am 16.8 14.7 12.5 76 2.5 WSW 15 20 8 11 - - 0.0
06/10:30am 17.5 15.6 13.0 75 2.6 WSW 15 26 8 14 - - 0.0
06/10:00am 16.6 14.3 11.7 73 2.8 WSW 15 24 8 13 - - 0.0
06/09:30am 15.8 11.4 11.8 77 2.3 W 26 33 14 18 - - 0.0
06/09:00am 14.7 8.9 11.5 81 1.8 W 33 44 18 24 - - 0.0
06/08:30am 14.0 8.1 11.2 83 1.6 W 33 46 18 25 - - 0.0
06/08:00am 13.6 6.7 11.5 87 1.2 W 39 50 21 27 - - 0.0
06/07:30am 12.8 4.8 11.2 90 0.9 W 44 54 24 29 - - 0.0
06/07:00am 12.8 5.7 11.0 89 1.0 W 39 46 21 25 - - 0.0
06/06:30am 12.7 7.4 11.4 92 0.7 W 30 37 16 20 - - 0.0
06/06:00am 11.8 7.2 11.0 95 0.4 WNW 26 33 14 18 - - 0.0
06/05:30am 12.0 7.4 11.2 95 0.4 WNW 26 32 14 17 - - 0.0
06/05:00am 11.6 7.8 11.0 96 0.3 WNW 22 28 12 15 - - 0.0
06/04:30am 11.2 7.6 10.7 97 0.3 NW 20 22 11 12 - - 0.0
06/04:00am 10.8 8.1 10.3 97 0.3 NW 15 19 8 10 - - 0.0
06/03:30am 10.3 8.2 9.7 96 0.3 NW 11 17 6 9 - - 0.0
06/03:00am 10.4 8.3 9.8 96 0.3 WNW 11 15 6 8 - - 0.0
06/02:30am 10.6 9.0 10.1 97 0.3 NW 9 13 5 7 - - 0.0
06/02:00am 10.5 8.8 10.0 97 0.3 NNW 9 17 5 9 - - 0.0
06/01:30am 10.2 8.8 9.7 97 0.3 NNW 7 11 4 6 - - 0.0
06/01:00am 10.1 9.7 9.6 97 0.3 N 2 7 1 4 - - 0.0
06/12:30am 10.0 9.9 9.5 97 0.3 CALM 0 0 0 0 - - 0.0
06/12:00am 9.7 9.5 8.9 95 0.4 CALM 0 0 0 0 - - 0.0
 
Date/Time
EDT
Temp
°C
App
Temp
°C
Dew
Point
Rel
Hum
%
Delta-T
°C
Wind Press
QNH
hPa
Press
MSL
hPa
Rain
since 9 am
mm
Dir
 
Spd
km/h
Gust
km/h
Spd
kts
Gust
kts
05/11:30pm 10.0 9.8 9.2 95 0.4 CALM 0 0 0 0 - - 0.0
05/11:00pm 10.0 9.8 9.2 95 0.4 CALM 0 9 0 5 - - 0.0
05/10:30pm 9.9 9.8 9.3 96 0.3 CALM 0 0 0 0 - - 0.0
05/10:00pm 9.6 8.2 8.8 95 0.4 ESE 6 9 3 5 - - 0.0
05/09:30pm 9.9 8.4 9.0 94 0.5 S 7 11 4 6 - - 0.0
05/09:00pm 10.7 9.3 9.5 92 0.6 SE 7 11 4 6 - - 0.0
05/08:30pm 10.7 8.5 9.5 92 0.6 ESE 11 15 6 8 - - 0.0
05/08:00pm 11.5 8.9 9.2 86 1.2 ESE 13 19 7 10 - - 0.0
05/07:30pm 12.8 10.3 9.8 82 1.6 ESE 13 19 7 10 - - 0.0
05/07:00pm 13.8 10.7 10.2 79 2.0 ESE 17 22 9 12 - - 0.0
05/06:30pm 15.1 12.4 10.5 74 2.5 ESE 15 22 8 12 - - 0.0
05/06:00pm 16.3 13.7 10.6 69 3.2 ESE 15 22 8 12 - - 0.0
05/05:30pm 17.3 14.8 10.9 66 3.6 ESE 15 19 8 10 - - 0.0
05/05:00pm 18.0 15.3 10.4 61 4.2 ESE 15 20 8 11 - - 0.0
05/04:30pm 19.2 17.1 11.0 59 4.6 ESE 13 17 7 9 - - 0.0
05/04:00pm 19.5 17.2 11.8 61 4.4 ESE 15 22 8 12 - - 0.0
05/03:30pm 20.4 18.8 10.2 52 5.7 E 9 15 5 8 - - 0.0
05/03:00pm 21.0 18.7 7.6 42 7.2 SW 9 15 5 8 - - 0.0
05/02:30pm 22.5 19.7 10.0 45 7.1 WNW 15 24 8 13 - - 0.0
05/02:00pm 21.4 18.5 8.0 42 7.3 WNW 13 22 7 12 - - 0.0
05/01:30pm 20.8 18.6 12.0 57 5.1 WNW 15 22 8 12 - - 0.0
05/01:00pm 18.9 15.2 8.0 49 5.8 W 17 28 9 15 - - 0.0
05/12:30pm 18.1 15.0 10.2 60 4.4 W 17 24 9 13 - - 0.0
05/12:00pm 16.9 13.1 9.8 63 3.9 WNW 20 32 11 17 - - 0.0
05/11:30am 16.0 12.2 9.2 64 3.7 WNW 19 30 10 16 - - 0.0
05/11:00am 15.5 11.8 9.6 68 3.2 WNW 19 28 10 15 - - 0.0
05/10:30am 14.7 12.1 7.7 63 3.6 NW 11 22 6 12 - - 0.0
05/10:00am 13.8 12.4 8.8 72 2.6 NE 6 9 3 5 - - 0.0
05/09:30am 13.1 11.7 8.8 75 2.3 NNE 6 11 3 6 - - 0.0
05/09:00am 12.9 11.7 9.4 79 1.9 ENE 6 11 3 6 - - 0.0
05/08:30am 11.6 10.1 8.6 82 1.6 ENE 6 9 3 5 - - 0.0
05/08:00am 10.3 8.6 7.5 83 1.4 E 6 9 3 5 - - 0.0
05/07:30am 9.6 7.7 7.5 87 1.0 WNW 7 11 4 6 - - 0.0
05/07:00am 9.3 8.7 7.6 89 0.8 CALM 0 0 0 0 - - 0.0
05/06:30am 8.5 7.1 7.3 92 0.6 NNW 4 11 2 6 - - 0.0
05/06:00am 8.0 6.1 6.8 92 0.6 NW 6 11 3 6 - - 0.0
05/05:30am 7.8 5.7 6.7 93 0.5 SSE 7 13 4 7 - - 0.0
05/05:00am 8.2 4.2 6.8 91 0.7 WSW 17 22 9 12 - - 0.0
05/04:30am 8.3 5.5 6.9 91 0.7 WSW 11 15 6 8 - - 0.0
05/04:00am 8.4 4.5 7.0 91 0.7 W 17 20 9 11 - - 0.0
05/03:30am 7.9 4.3 6.8 93 0.5 WNW 15 19 8 10 - - 0.0
05/03:00am 7.3 4.0 6.6 95 0.3 W 13 15 7 8 - - 0.0
05/02:30am 7.5 5.0 6.6 94 0.4 N 9 11 5 6 - - 0.0
05/02:00am 7.8 6.6 6.6 92 0.6 NW 2 9 1 5 - - 0.0
05/01:30am 7.6 5.1 6.4 92 0.6 W 9 11 5 6 - - 0.0
05/01:00am 7.5 5.5 6.3 92 0.6 WNW 6 13 3 7 - - 0.0
05/12:30am 7.7 5.7 7.1 96 0.3 N 7 9 4 5 - - 0.0
05/12:00am 7.5 6.3 6.6 94 0.4 N 2 9 1 5 - - 0.0
 
Date/Time
EDT
Temp
°C
App
Temp
°C
Dew
Point
Rel
Hum
%
Delta-T
°C
Wind Press
QNH
hPa
Press
MSL
hPa
Rain
since 9 am
mm
Dir
 
Spd
km/h
Gust
km/h
Spd
kts
Gust
kts
04/11:30pm 7.9 5.8 6.8 93 0.5 NNW 7 11 4 6 - - 0.0
04/11:00pm 8.8 6.3 6.4 85 1.2 WNW 9 13 5 7 - - 0.0
04/10:30pm 9.4 6.5 6.3 81 1.5 WNW 11 15 6 8 - - 0.0
04/10:00pm 9.5 6.6 6.6 82 1.4 W 11 15 6 8 - - 0.0
04/09:30pm 9.7 6.1 6.6 81 1.5 WSW 15 20 8 11 - - 0.0
04/09:00pm 10.1 5.6 7.0 81 1.5 WSW 20 26 11 14 - - 0.0
04/08:30pm 10.2 5.3 7.1 81 1.5 WSW 22 28 12 15 - - 0.0
04/08:00pm 11.9 6.7 7.2 73 2.4 WSW 24 32 13 17 - - 0.0
04/07:30pm 13.1 8.0 7.5 69 2.9 WSW 24 32 13 17 - - 0.0
04/07:00pm 14.3 10.0 8.0 66 3.3 WSW 20 30 11 16 - - 0.0
04/06:30pm 15.3 11.4 8.5 64 3.6 WSW 19 26 10 14 - - 0.0
04/06:00pm 16.0 11.4 8.0 59 4.2 WSW 22 32 12 17 - - 0.0
04/05:30pm 16.3 12.9 7.8 57 4.5 WSW 15 26 8 14 - - 0.0
04/05:00pm 15.9 10.6 8.6 62 3.9 WSW 26 35 14 19 - - 0.0
04/04:30pm 16.0 10.7 9.9 67 3.3 WSW 28 41 15 22 - - 0.0
04/04:00pm 15.3 8.9 8.5 64 3.6 WSW 32 44 17 24 - - 0.0
04/03:30pm 14.6 7.3 8.8 68 3.1 W 37 50 20 27 - - 0.0
04/03:00pm 13.8 6.5 8.8 72 2.6 W 37 46 20 25 - - 0.0
04/02:30pm 12.9 6.5 8.4 74 2.3 WSW 32 44 17 24 - - 0.0
04/02:00pm 12.8 6.3 8.1 73 2.4 WSW 32 43 17 23 - - 0.0
04/01:30pm 14.0 8.1 9.2 73 2.6 W 30 41 16 22 - - 0.0
04/01:00pm 14.7 8.5 9.9 73 2.6 WSW 33 46 18 25 - - 0.0
04/12:30pm 13.0 5.5 8.1 72 2.5 WSW 37 48 20 26 - - 0.0
04/12:01pm 10.8 4.7 6.4 74 2.2 WSW 28 48 15 26 - - 0.0
04/12:00pm 10.7 5.0 6.6 76 2.0 W 26 48 14 26 - - 0.0
04/11:30am 9.6 2.9 5.8 77 1.8 WSW 30 46 16 25 - - 0.0
04/11:16am 10.5 4.4 6.5 76 2.0 WSW 28 46 15 25 - - 0.0
04/11:00am 11.4 4.2 7.7 78 1.9 W 35 50 19 27 - - 0.0
04/10:30am 10.7 3.7 7.0 78 1.8 W 33 52 18 28 - - 0.0
04/10:04am 10.2 2.4 6.7 79 1.7 W 37 56 20 30 - - 0.0
04/10:00am 9.7 1.1 6.4 80 1.6 W 41 54 22 29 - - 0.0
04/09:37am 9.8 1.8 5.8 76 1.9 W 37 56 20 30 - - 0.0
04/09:30am 9.2 0.4 5.4 77 1.8 W 41 56 22 30 - - 0.0
04/09:00am 8.5 -1.7 5.4 81 1.5 WSW 48 57 26 31 - - 0.0
04/08:30am 8.1 -1.7 5.2 82 1.4 W 46 59 25 32 - - 0.0
04/08:00am 7.3 -2.6 4.8 84 1.2 W 46 57 25 31 - - 0.0
04/07:30am 6.9 -2.1 4.6 85 1.1 W 41 52 22 28 - - 0.0
04/07:00am 6.6 0.1 4.8 88 0.8 W 28 39 15 21 - - 0.0
04/06:30am 6.2 -0.7 4.7 90 0.7 W 30 41 16 22 - - 0.0
04/06:00am 6.3 -1.1 4.8 90 0.7 W 33 44 18 24 - - 0.0
04/05:37am 6.2 -0.3 4.8 91 0.6 W 28 46 15 25 - - 0.0
04/05:30am 6.1 -1.2 4.7 91 0.6 WSW 32 44 17 24 - - 0.0
04/05:00am 6.2 -2.0 4.5 89 0.8 WSW 37 56 20 30 - - 0.0
04/04:58am 6.2 -2.0 4.5 89 0.8 WSW 37 56 20 30 - - 0.0
04/04:30am 6.2 -1.7 4.5 89 0.8 W 35 46 19 25 - - 0.0
04/04:00am 6.3 -1.6 4.5 88 0.8 W 35 46 19 25 - - 0.0
04/03:30am 6.4 -1.4 4.9 90 0.7 W 35 46 19 25 - - 0.0
04/03:00am 6.7 -1.0 5.3 91 0.7 WSW 35 48 19 26 - - 0.0
04/02:30am 6.6 -1.2 5.1 90 0.7 WSW 35 48 19 26 - - 0.0
04/02:00am 6.9 -0.8 5.2 89 0.8 WSW 35 46 19 25 - - 0.0
04/01:30am 6.9 -0.5 4.9 87 0.9 WSW 33 43 18 23 - - 0.0
04/01:00am 6.9 0.0 4.6 85 1.1 WSW 30 48 16 26 - - 0.0
04/12:30am 7.0 1.4 5.2 88 0.8 WSW 24 35 13 19 - - 0.0
04/12:00am 7.0 0.6 5.0 87 0.9 WSW 28 43 15 23 - - 0.0
 
Date/Time
EDT
Temp
°C
App
Temp
°C
Dew
Point
Rel
Hum
%
Delta-T
°C
Wind Press
QNH
hPa
Press
MSL
hPa
Rain
since 9 am
mm
Dir
 
Spd
km/h
Gust
km/h
Spd
kts
Gust
kts
03/11:30pm 7.1 1.5 5.6 90 0.7 WSW 24 37 13 20 - - 0.0
03/11:00pm 7.2 -0.1 5.3 88 0.9 WSW 33 43 18 23 - - 0.0
03/10:30pm 7.2 0.4 5.2 87 0.9 WSW 30 44 16 24 - - 0.0
03/10:00pm 7.3 -0.5 5.1 86 1.0 WSW 35 50 19 27 - - 0.0
03/09:31pm 7.4 0.3 5.4 87 0.9 WSW 32 50 17 27 - - 0.0
03/09:30pm 7.5 0.2 5.5 87 0.9 WSW 33 50 18 27 - - 0.0
03/09:00pm 7.9 -1.5 5.4 84 1.2 WSW 44 61 24 33 - - 0.0
03/08:30pm 8.3 -0.8 5.8 84 1.2 WSW 43 59 23 32 - - 0.0
03/08:00pm 8.9 0.9 5.6 80 1.6 WSW 37 50 20 27 - - 0.0
03/07:30pm 9.4 2.5 6.5 82 1.4 WSW 32 54 17 29 - - 0.0
03/07:00pm 9.9 3.0 6.3 78 1.8 W 32 54 17 29 - - 0.0
03/06:30pm 10.2 1.7 5.0 70 2.5 W 39 63 21 34 - - 0.0
03/06:00pm 11.3 1.9 5.6 68 2.8 WSW 44 69 24 37 - - 0.0
03/05:30pm 11.4 1.6 5.5 67 2.9 WSW 46 69 25 37 - - 0.0
03/05:00pm 10.6 0.3 6.6 76 2.0 WSW 50 70 27 38 - - 0.0
03/04:30pm 11.1 1.2 6.6 74 2.2 W 48 74 26 40 - - 0.0
03/04:18pm 11.5 2.5 6.4 71 2.5 W 43 63 23 34 - - 0.0
03/04:13pm 11.3 0.9 6.0 70 2.6 W 50 67 27 36 - - 0.0
03/04:00pm 11.8 0.6 6.1 68 2.8 W 54 80 29 43 - - 0.0
03/03:58pm 12.3 1.3 6.6 68 2.8 W 54 80 29 43 - - 0.0
03/03:30pm 11.5 1.8 6.0 69 2.7 W 46 65 25 35 - - 0.0
03/03:00pm 11.7 0.0 6.2 69 2.7 W 57 80 31 43 - - 0.0
03/02:49pm 12.9 2.5 7.6 70 2.7 W 52 78 28 42 - - 0.0
03/02:30pm 13.1 5.1 7.5 69 2.9 W 39 59 21 32 - - 0.0

Other Formats:

Comma delimited format used in spreadsheet applications
http://www.bom.gov.au/fwo/IDT60801/IDT60801.94977.axf

JavaScript Object Notation format (JSON) in row-major order
http://www.bom.gov.au/fwo/IDT60801/IDT60801.94977.json